sensor_id;sensor_type;location;lat;lon;timestamp;P1;durP1;ratioP1;P2;durP2;ratioP2
72517;SDS011;60540;51.178;6.738;2022-12-10T00:00:16;30.67;;;13.10;;
72517;SDS011;60540;51.178;6.738;2022-12-10T00:05:28;19.50;;;9.75;;
72517;SDS011;60540;51.178;6.738;2022-12-10T00:07:53;21.55;;;11.30;;
72517;SDS011;60540;51.178;6.738;2022-12-10T00:10:19;22.42;;;11.02;;
72517;SDS011;60540;51.178;6.738;2022-12-10T00:12:45;24.10;;;11.70;;
72517;SDS011;60540;51.178;6.738;2022-12-10T00:15:10;29.25;;;13.38;;
72517;SDS011;60540;51.178;6.738;2022-12-10T00:17:36;24.23;;;12.63;;
72517;SDS011;60540;51.178;6.738;2022-12-10T00:20:02;26.65;;;12.50;;
72517;SDS011;60540;51.178;6.738;2022-12-10T00:22:28;28.42;;;12.30;;
72517;SDS011;60540;51.178;6.738;2022-12-10T00:24:54;26.80;;;13.02;;
72517;SDS011;60540;51.178;6.738;2022-12-10T00:27:19;27.48;;;13.23;;
72517;SDS011;60540;51.178;6.738;2022-12-10T00:29:45;27.50;;;12.88;;
72517;SDS011;60540;51.178;6.738;2022-12-10T00:32:11;26.83;;;12.98;;
72517;SDS011;60540;51.178;6.738;2022-12-10T00:34:36;24.75;;;12.13;;
72517;SDS011;60540;51.178;6.738;2022-12-10T00:37:02;22.55;;;11.20;;
72517;SDS011;60540;51.178;6.738;2022-12-10T00:39:28;22.60;;;11.80;;
72517;SDS011;60540;51.178;6.738;2022-12-10T00:41:54;23.20;;;11.70;;
72517;SDS011;60540;51.178;6.738;2022-12-10T00:44:20;26.15;;;13.35;;
72517;SDS011;60540;51.178;6.738;2022-12-10T00:46:45;27.42;;;13.38;;
72517;SDS011;60540;51.178;6.738;2022-12-10T00:49:11;28.08;;;13.15;;
72517;SDS011;60540;51.178;6.738;2022-12-10T00:51:37;30.55;;;11.82;;
72517;SDS011;60540;51.178;6.738;2022-12-10T00:54:02;25.00;;;11.43;;
72517;SDS011;60540;51.178;6.738;2022-12-10T00:56:29;26.10;;;12.70;;
72517;SDS011;60540;51.178;6.738;2022-12-10T00:58:57;27.15;;;12.38;;
72517;SDS011;60540;51.178;6.738;2022-12-10T01:01:31;24.50;;;10.48;;
72517;SDS011;60540;51.178;6.738;2022-12-10T01:04:02;24.70;;;11.80;;
72517;SDS011;60540;51.178;6.738;2022-12-10T01:06:31;25.02;;;11.13;;
72517;SDS011;60540;51.178;6.738;2022-12-10T01:09:03;23.10;;;11.70;;
72517;SDS011;60540;51.178;6.738;2022-12-10T01:11:32;21.30;;;10.88;;
72517;SDS011;60540;51.178;6.738;2022-12-10T01:14:00;24.20;;;12.23;;
72517;SDS011;60540;51.178;6.738;2022-12-10T01:16:26;25.42;;;12.38;;
72517;SDS011;60540;51.178;6.738;2022-12-10T01:18:55;27.25;;;11.73;;
72517;SDS011;60540;51.178;6.738;2022-12-10T01:21:22;24.77;;;11.95;;
72517;SDS011;60540;51.178;6.738;2022-12-10T01:23:48;21.50;;;11.05;;
72517;SDS011;60540;51.178;6.738;2022-12-10T01:26:16;26.08;;;12.55;;
72517;SDS011;60540;51.178;6.738;2022-12-10T01:28:44;22.73;;;11.52;;
72517;SDS011;60540;51.178;6.738;2022-12-10T01:31:17;24.98;;;12.02;;
72517;SDS011;60540;51.178;6.738;2022-12-10T01:33:47;24.77;;;12.52;;
72517;SDS011;60540;51.178;6.738;2022-12-10T01:36:15;23.20;;;12.48;;
72517;SDS011;60540;51.178;6.738;2022-12-10T01:38:43;23.65;;;11.05;;
72517;SDS011;60540;51.178;6.738;2022-12-10T01:41:16;25.60;;;12.70;;
72517;SDS011;60540;51.178;6.738;2022-12-10T01:46:44;28.45;;;12.05;;
72517;SDS011;60540;51.178;6.738;2022-12-10T01:49:14;25.27;;;11.80;;
72517;SDS011;60540;51.178;6.738;2022-12-10T01:51:41;25.52;;;12.35;;
72517;SDS011;60540;51.178;6.738;2022-12-10T01:54:10;24.38;;;11.43;;
72517;SDS011;60540;51.178;6.738;2022-12-10T01:56:38;19.35;;;10.48;;
72517;SDS011;60540;51.178;6.738;2022-12-10T01:59:07;22.95;;;11.35;;
72517;SDS011;60540;51.178;6.738;2022-12-10T02:01:48;24.67;;;11.00;;
72517;SDS011;60540;51.178;6.738;2022-12-10T02:07:00;25.50;;;11.95;;
72517;SDS011;60540;51.178;6.738;2022-12-10T02:17:19;23.85;;;13.18;;
72517;SDS011;60540;51.178;6.738;2022-12-10T02:20:00;23.33;;;11.65;;
72517;SDS011;60540;51.178;6.738;2022-12-10T02:22:35;18.70;;;10.88;;
72517;SDS011;60540;51.178;6.738;2022-12-10T02:25:04;19.13;;;10.15;;
72517;SDS011;60540;51.178;6.738;2022-12-10T02:27:39;21.80;;;9.82;;
72517;SDS011;60540;51.178;6.738;2022-12-10T02:30:12;23.33;;;11.38;;
72517;SDS011;60540;51.178;6.738;2022-12-10T02:32:39;24.20;;;11.82;;
72517;SDS011;60540;51.178;6.738;2022-12-10T02:35:09;20.95;;;10.93;;
72517;SDS011;60540;51.178;6.738;2022-12-10T02:37:51;20.88;;;11.02;;
72517;SDS011;60540;51.178;6.738;2022-12-10T02:40:23;20.85;;;10.48;;
72517;SDS011;60540;51.178;6.738;2022-12-10T02:42:50;28.48;;;12.10;;
72517;SDS011;60540;51.178;6.738;2022-12-10T02:45:17;20.77;;;10.68;;
72517;SDS011;60540;51.178;6.738;2022-12-10T02:50:09;22.15;;;10.13;;
72517;SDS011;60540;51.178;6.738;2022-12-10T02:52:36;27.60;;;12.32;;
72517;SDS011;60540;51.178;6.738;2022-12-10T02:55:01;26.92;;;11.85;;
72517;SDS011;60540;51.178;6.738;2022-12-10T02:57:29;24.17;;;12.80;;
72517;SDS011;60540;51.178;6.738;2022-12-10T03:00:06;27.27;;;11.63;;
72517;SDS011;60540;51.178;6.738;2022-12-10T03:08:08;28.13;;;12.13;;
72517;SDS011;60540;51.178;6.738;2022-12-10T03:13:16;27.27;;;11.75;;
72517;SDS011;60540;51.178;6.738;2022-12-10T03:18:09;23.25;;;11.20;;
72517;SDS011;60540;51.178;6.738;2022-12-10T03:20:39;29.88;;;13.13;;
72517;SDS011;60540;51.178;6.738;2022-12-10T03:23:13;25.38;;;11.80;;
72517;SDS011;60540;51.178;6.738;2022-12-10T03:25:41;22.77;;;11.52;;
72517;SDS011;60540;51.178;6.738;2022-12-10T03:28:07;22.65;;;12.20;;
72517;SDS011;60540;51.178;6.738;2022-12-10T03:30:33;27.10;;;11.77;;
72517;SDS011;60540;51.178;6.738;2022-12-10T03:33:00;25.58;;;12.50;;
72517;SDS011;60540;51.178;6.738;2022-12-10T03:35:26;29.98;;;11.95;;
72517;SDS011;60540;51.178;6.738;2022-12-10T03:37:51;27.08;;;13.77;;
72517;SDS011;60540;51.178;6.738;2022-12-10T03:40:18;24.33;;;12.82;;
72517;SDS011;60540;51.178;6.738;2022-12-10T03:42:46;24.58;;;11.60;;
72517;SDS011;60540;51.178;6.738;2022-12-10T03:45:12;27.83;;;13.88;;
72517;SDS011;60540;51.178;6.738;2022-12-10T03:47:37;25.25;;;12.23;;
72517;SDS011;60540;51.178;6.738;2022-12-10T03:50:03;23.58;;;12.07;;
72517;SDS011;60540;51.178;6.738;2022-12-10T03:52:29;26.67;;;13.10;;
72517;SDS011;60540;51.178;6.738;2022-12-10T03:54:54;24.33;;;11.32;;
72517;SDS011;60540;51.178;6.738;2022-12-10T03:57:20;22.77;;;11.57;;
72517;SDS011;60540;51.178;6.738;2022-12-10T03:59:46;25.25;;;12.15;;
72517;SDS011;60540;51.178;6.738;2022-12-10T04:02:12;21.05;;;10.40;;
72517;SDS011;60540;51.178;6.738;2022-12-10T04:04:37;26.15;;;11.23;;
72517;SDS011;60540;51.178;6.738;2022-12-10T04:07:03;24.95;;;11.75;;
72517;SDS011;60540;51.178;6.738;2022-12-10T04:09:29;26.70;;;12.57;;
72517;SDS011;60540;51.178;6.738;2022-12-10T04:11:55;25.83;;;12.65;;
72517;SDS011;60540;51.178;6.738;2022-12-10T04:14:22;25.23;;;12.02;;
72517;SDS011;60540;51.178;6.738;2022-12-10T04:17:06;28.55;;;12.32;;
72517;SDS011;60540;51.178;6.738;2022-12-10T04:19:32;23.77;;;11.63;;
72517;SDS011;60540;51.178;6.738;2022-12-10T04:21:57;25.90;;;11.93;;
72517;SDS011;60540;51.178;6.738;2022-12-10T04:24:41;25.20;;;11.32;;
72517;SDS011;60540;51.178;6.738;2022-12-10T04:27:27;31.85;;;12.48;;
72517;SDS011;60540;51.178;6.738;2022-12-10T04:29:54;30.85;;;13.88;;
72517;SDS011;60540;51.178;6.738;2022-12-10T04:32:21;25.73;;;12.02;;
72517;SDS011;60540;51.178;6.738;2022-12-10T04:34:47;27.85;;;12.95;;
72517;SDS011;60540;51.178;6.738;2022-12-10T04:37:13;29.48;;;13.57;;
72517;SDS011;60540;51.178;6.738;2022-12-10T04:39:39;31.92;;;12.63;;
72517;SDS011;60540;51.178;6.738;2022-12-10T04:42:06;29.15;;;13.05;;
72517;SDS011;60540;51.178;6.738;2022-12-10T04:44:32;29.70;;;13.90;;
72517;SDS011;60540;51.178;6.738;2022-12-10T04:46:59;33.03;;;13.77;;
72517;SDS011;60540;51.178;6.738;2022-12-10T04:49:24;32.40;;;13.77;;
72517;SDS011;60540;51.178;6.738;2022-12-10T04:51:50;31.50;;;13.82;;
72517;SDS011;60540;51.178;6.738;2022-12-10T04:54:16;31.33;;;13.80;;
72517;SDS011;60540;51.178;6.738;2022-12-10T04:56:42;30.23;;;13.18;;
72517;SDS011;60540;51.178;6.738;2022-12-10T04:59:08;34.53;;;14.02;;
72517;SDS011;60540;51.178;6.738;2022-12-10T05:01:34;35.13;;;13.82;;
72517;SDS011;60540;51.178;6.738;2022-12-10T05:04:00;30.58;;;12.82;;
72517;SDS011;60540;51.178;6.738;2022-12-10T05:06:27;27.77;;;13.60;;
72517;SDS011;60540;51.178;6.738;2022-12-10T05:08:53;32.28;;;14.65;;
72517;SDS011;60540;51.178;6.738;2022-12-10T05:11:20;37.83;;;14.85;;
72517;SDS011;60540;51.178;6.738;2022-12-10T05:16:14;29.65;;;12.65;;
72517;SDS011;60540;51.178;6.738;2022-12-10T05:18:41;33.70;;;14.57;;
72517;SDS011;60540;51.178;6.738;2022-12-10T05:21:09;37.20;;;13.50;;
72517;SDS011;60540;51.178;6.738;2022-12-10T05:23:37;29.75;;;13.07;;
72517;SDS011;60540;51.178;6.738;2022-12-10T05:26:04;28.88;;;13.13;;
72517;SDS011;60540;51.178;6.738;2022-12-10T05:28:49;27.10;;;12.60;;
72517;SDS011;60540;51.178;6.738;2022-12-10T05:31:18;26.33;;;12.75;;
72517;SDS011;60540;51.178;6.738;2022-12-10T05:33:45;25.83;;;13.25;;
72517;SDS011;60540;51.178;6.738;2022-12-10T05:36:11;31.70;;;13.38;;
72517;SDS011;60540;51.178;6.738;2022-12-10T05:38:39;32.95;;;13.43;;
72517;SDS011;60540;51.178;6.738;2022-12-10T05:41:06;30.17;;;12.32;;
72517;SDS011;60540;51.178;6.738;2022-12-10T05:43:34;28.08;;;13.07;;
72517;SDS011;60540;51.178;6.738;2022-12-10T05:46:00;31.20;;;12.63;;
72517;SDS011;60540;51.178;6.738;2022-12-10T05:48:27;32.22;;;13.73;;
72517;SDS011;60540;51.178;6.738;2022-12-10T05:50:53;31.48;;;12.77;;
72517;SDS011;60540;51.178;6.738;2022-12-10T05:53:18;29.58;;;13.77;;
72517;SDS011;60540;51.178;6.738;2022-12-10T05:55:44;29.88;;;11.82;;
72517;SDS011;60540;51.178;6.738;2022-12-10T05:58:10;28.38;;;12.32;;
72517;SDS011;60540;51.178;6.738;2022-12-10T06:00:38;30.00;;;13.77;;
72517;SDS011;60540;51.178;6.738;2022-12-10T06:03:04;32.45;;;14.52;;
72517;SDS011;60540;51.178;6.738;2022-12-10T06:05:30;25.60;;;12.73;;
72517;SDS011;60540;51.178;6.738;2022-12-10T06:08:01;32.90;;;12.77;;
72517;SDS011;60540;51.178;6.738;2022-12-10T06:10:27;30.30;;;13.70;;
72517;SDS011;60540;51.178;6.738;2022-12-10T06:12:52;31.27;;;13.65;;
72517;SDS011;60540;51.178;6.738;2022-12-10T06:15:18;31.60;;;13.85;;
72517;SDS011;60540;51.178;6.738;2022-12-10T06:17:44;34.30;;;14.80;;
72517;SDS011;60540;51.178;6.738;2022-12-10T06:20:09;31.15;;;13.98;;
72517;SDS011;60540;51.178;6.738;2022-12-10T06:22:35;34.72;;;14.23;;
72517;SDS011;60540;51.178;6.738;2022-12-10T06:25:01;38.13;;;14.55;;
72517;SDS011;60540;51.178;6.738;2022-12-10T06:27:29;34.45;;;15.52;;
72517;SDS011;60540;51.178;6.738;2022-12-10T06:29:55;39.00;;;15.23;;
72517;SDS011;60540;51.178;6.738;2022-12-10T06:32:21;37.58;;;14.88;;
72517;SDS011;60540;51.178;6.738;2022-12-10T06:34:46;32.95;;;15.32;;
72517;SDS011;60540;51.178;6.738;2022-12-10T06:37:12;35.03;;;13.73;;
72517;SDS011;60540;51.178;6.738;2022-12-10T06:39:37;37.92;;;15.48;;
72517;SDS011;60540;51.178;6.738;2022-12-10T06:42:03;38.03;;;14.77;;
72517;SDS011;60540;51.178;6.738;2022-12-10T06:44:28;41.50;;;16.40;;
72517;SDS011;60540;51.178;6.738;2022-12-10T06:46:54;38.28;;;15.40;;
72517;SDS011;60540;51.178;6.738;2022-12-10T06:49:20;38.08;;;15.00;;
72517;SDS011;60540;51.178;6.738;2022-12-10T06:51:46;41.58;;;16.08;;
72517;SDS011;60540;51.178;6.738;2022-12-10T06:54:12;35.10;;;14.02;;
72517;SDS011;60540;51.178;6.738;2022-12-10T06:56:38;35.40;;;14.10;;
72517;SDS011;60540;51.178;6.738;2022-12-10T06:59:04;33.85;;;14.98;;
72517;SDS011;60540;51.178;6.738;2022-12-10T07:01:31;36.03;;;15.23;;
72517;SDS011;60540;51.178;6.738;2022-12-10T07:03:57;38.97;;;15.25;;
72517;SDS011;60540;51.178;6.738;2022-12-10T07:06:23;34.35;;;13.80;;
72517;SDS011;60540;51.178;6.738;2022-12-10T07:08:50;39.50;;;15.93;;
72517;SDS011;60540;51.178;6.738;2022-12-10T07:11:17;38.95;;;14.10;;
72517;SDS011;60540;51.178;6.738;2022-12-10T07:13:44;41.72;;;15.27;;
72517;SDS011;60540;51.178;6.738;2022-12-10T07:16:11;40.92;;;15.63;;
72517;SDS011;60540;51.178;6.738;2022-12-10T07:18:38;38.38;;;14.73;;
72517;SDS011;60540;51.178;6.738;2022-12-10T07:24:06;43.42;;;15.27;;
72517;SDS011;60540;51.178;6.738;2022-12-10T07:26:36;40.42;;;15.52;;
72517;SDS011;60540;51.178;6.738;2022-12-10T07:29:03;34.80;;;13.65;;
72517;SDS011;60540;51.178;6.738;2022-12-10T07:31:29;39.17;;;13.50;;
72517;SDS011;60540;51.178;6.738;2022-12-10T07:33:56;41.35;;;14.80;;
72517;SDS011;60540;51.178;6.738;2022-12-10T07:36:23;37.72;;;14.65;;
72517;SDS011;60540;51.178;6.738;2022-12-10T07:38:49;44.72;;;15.80;;
72517;SDS011;60540;51.178;6.738;2022-12-10T07:41:16;43.72;;;15.95;;
72517;SDS011;60540;51.178;6.738;2022-12-10T07:43:42;35.47;;;13.55;;
72517;SDS011;60540;51.178;6.738;2022-12-10T07:46:11;33.00;;;14.23;;
72517;SDS011;60540;51.178;6.738;2022-12-10T07:48:41;41.75;;;15.15;;
72517;SDS011;60540;51.178;6.738;2022-12-10T07:51:07;43.80;;;14.95;;
72517;SDS011;60540;51.178;6.738;2022-12-10T07:53:33;35.53;;;13.95;;
72517;SDS011;60540;51.178;6.738;2022-12-10T07:55:59;38.65;;;13.75;;
72517;SDS011;60540;51.178;6.738;2022-12-10T07:58:25;34.08;;;14.38;;
72517;SDS011;60540;51.178;6.738;2022-12-10T08:00:50;41.13;;;16.33;;
72517;SDS011;60540;51.178;6.738;2022-12-10T08:03:16;37.33;;;15.10;;
72517;SDS011;60540;51.178;6.738;2022-12-10T08:05:42;34.80;;;13.68;;
72517;SDS011;60540;51.178;6.738;2022-12-10T08:08:07;36.72;;;14.70;;
72517;SDS011;60540;51.178;6.738;2022-12-10T08:10:36;36.45;;;14.52;;
72517;SDS011;60540;51.178;6.738;2022-12-10T08:13:03;36.20;;;14.15;;
72517;SDS011;60540;51.178;6.738;2022-12-10T08:15:29;37.83;;;15.23;;
72517;SDS011;60540;51.178;6.738;2022-12-10T08:17:55;36.70;;;14.07;;
72517;SDS011;60540;51.178;6.738;2022-12-10T08:20:22;42.63;;;15.50;;
72517;SDS011;60540;51.178;6.738;2022-12-10T08:22:48;43.65;;;14.48;;
72517;SDS011;60540;51.178;6.738;2022-12-10T08:25:13;36.75;;;14.27;;
72517;SDS011;60540;51.178;6.738;2022-12-10T08:27:39;40.90;;;14.27;;
72517;SDS011;60540;51.178;6.738;2022-12-10T08:30:05;39.70;;;14.23;;
72517;SDS011;60540;51.178;6.738;2022-12-10T08:32:31;37.63;;;14.10;;
72517;SDS011;60540;51.178;6.738;2022-12-10T08:34:56;46.58;;;15.65;;
72517;SDS011;60540;51.178;6.738;2022-12-10T08:37:22;41.08;;;16.45;;
72517;SDS011;60540;51.178;6.738;2022-12-10T08:39:48;39.35;;;14.27;;
72517;SDS011;60540;51.178;6.738;2022-12-10T08:42:13;41.45;;;15.20;;
72517;SDS011;60540;51.178;6.738;2022-12-10T08:44:39;38.83;;;14.55;;
72517;SDS011;60540;51.178;6.738;2022-12-10T08:47:04;37.28;;;14.02;;
72517;SDS011;60540;51.178;6.738;2022-12-10T08:49:31;44.72;;;14.20;;
72517;SDS011;60540;51.178;6.738;2022-12-10T08:51:56;40.95;;;15.00;;
72517;SDS011;60540;51.178;6.738;2022-12-10T08:54:22;38.17;;;13.18;;
72517;SDS011;60540;51.178;6.738;2022-12-10T08:56:47;35.55;;;13.63;;
72517;SDS011;60540;51.178;6.738;2022-12-10T08:59:13;40.72;;;13.27;;
72517;SDS011;60540;51.178;6.738;2022-12-10T09:01:39;32.53;;;13.20;;
72517;SDS011;60540;51.178;6.738;2022-12-10T09:04:04;34.42;;;13.40;;
72517;SDS011;60540;51.178;6.738;2022-12-10T09:06:30;40.42;;;13.38;;
72517;SDS011;60540;51.178;6.738;2022-12-10T09:08:56;43.75;;;15.43;;
72517;SDS011;60540;51.178;6.738;2022-12-10T09:11:31;41.20;;;13.77;;
72517;SDS011;60540;51.178;6.738;2022-12-10T09:13:58;39.13;;;13.15;;
72517;SDS011;60540;51.178;6.738;2022-12-10T09:16:31;42.22;;;16.27;;
72517;SDS011;60540;51.178;6.738;2022-12-10T09:21:24;40.17;;;13.82;;
72517;SDS011;60540;51.178;6.738;2022-12-10T09:23:50;40.97;;;13.10;;
72517;SDS011;60540;51.178;6.738;2022-12-10T09:26:16;37.75;;;13.73;;
72517;SDS011;60540;51.178;6.738;2022-12-10T09:28:43;39.55;;;14.80;;
72517;SDS011;60540;51.178;6.738;2022-12-10T09:31:09;36.78;;;14.23;;
72517;SDS011;60540;51.178;6.738;2022-12-10T09:33:35;41.85;;;15.23;;
72517;SDS011;60540;51.178;6.738;2022-12-10T09:36:04;41.90;;;15.48;;
72517;SDS011;60540;51.178;6.738;2022-12-10T09:38:35;36.55;;;14.63;;
72517;SDS011;60540;51.178;6.738;2022-12-10T09:41:11;34.92;;;14.38;;
72517;SDS011;60540;51.178;6.738;2022-12-10T09:44:09;40.08;;;14.48;;
72517;SDS011;60540;51.178;6.738;2022-12-10T09:46:41;40.42;;;14.07;;
72517;SDS011;60540;51.178;6.738;2022-12-10T09:49:21;41.97;;;14.50;;
72517;SDS011;60540;51.178;6.738;2022-12-10T09:51:54;42.78;;;14.75;;
72517;SDS011;60540;51.178;6.738;2022-12-10T09:54:29;37.85;;;14.82;;
72517;SDS011;60540;51.178;6.738;2022-12-10T09:56:57;42.25;;;13.77;;
72517;SDS011;60540;51.178;6.738;2022-12-10T10:04:48;34.53;;;11.80;;
72517;SDS011;60540;51.178;6.738;2022-12-10T10:07:23;37.30;;;13.60;;
72517;SDS011;60540;51.178;6.738;2022-12-10T10:09:50;32.42;;;12.23;;
72517;SDS011;60540;51.178;6.738;2022-12-10T10:12:17;35.92;;;13.57;;
72517;SDS011;60540;51.178;6.738;2022-12-10T10:14:43;35.17;;;13.55;;
72517;SDS011;60540;51.178;6.738;2022-12-10T10:17:11;29.42;;;11.80;;
72517;SDS011;60540;51.178;6.738;2022-12-10T10:19:40;32.63;;;13.43;;
72517;SDS011;60540;51.178;6.738;2022-12-10T10:22:10;33.00;;;12.55;;
72517;SDS011;60540;51.178;6.738;2022-12-10T10:24:42;35.65;;;12.65;;
72517;SDS011;60540;51.178;6.738;2022-12-10T10:27:15;33.38;;;14.02;;
72517;SDS011;60540;51.178;6.738;2022-12-10T10:29:49;37.00;;;13.07;;
72517;SDS011;60540;51.178;6.738;2022-12-10T10:32:21;33.75;;;14.90;;
72517;SDS011;60540;51.178;6.738;2022-12-10T10:34:55;30.98;;;12.50;;
72517;SDS011;60540;51.178;6.738;2022-12-10T10:37:23;31.73;;;12.25;;
72517;SDS011;60540;51.178;6.738;2022-12-10T10:39:52;35.65;;;13.25;;
72517;SDS011;60540;51.178;6.738;2022-12-10T10:42:37;34.60;;;13.57;;
72517;SDS011;60540;51.178;6.738;2022-12-10T10:48:18;35.72;;;13.18;;
72517;SDS011;60540;51.178;6.738;2022-12-10T10:50:50;35.17;;;12.77;;
72517;SDS011;60540;51.178;6.738;2022-12-10T10:55:45;30.15;;;13.52;;
72517;SDS011;60540;51.178;6.738;2022-12-10T10:58:18;33.70;;;13.32;;
72517;SDS011;60540;51.178;6.738;2022-12-10T11:03:44;32.63;;;11.77;;
72517;SDS011;60540;51.178;6.738;2022-12-10T11:06:12;30.13;;;11.63;;
72517;SDS011;60540;51.178;6.738;2022-12-10T11:08:38;31.75;;;12.48;;
72517;SDS011;60540;51.178;6.738;2022-12-10T11:11:06;33.40;;;13.35;;
72517;SDS011;60540;51.178;6.738;2022-12-10T11:13:37;33.08;;;13.23;;
72517;SDS011;60540;51.178;6.738;2022-12-10T11:16:19;30.23;;;12.60;;
72517;SDS011;60540;51.178;6.738;2022-12-10T11:19:00;27.25;;;11.32;;
72517;SDS011;60540;51.178;6.738;2022-12-10T11:21:30;24.35;;;9.50;;
72517;SDS011;60540;51.178;6.738;2022-12-10T11:23:57;29.88;;;10.45;;
72517;SDS011;60540;51.178;6.738;2022-12-10T11:37:29;26.83;;;12.35;;
72517;SDS011;60540;51.178;6.738;2022-12-10T11:51:35;28.58;;;12.13;;
72517;SDS011;60540;51.178;6.738;2022-12-10T11:54:09;29.08;;;11.52;;
72517;SDS011;60540;51.178;6.738;2022-12-10T11:56:47;25.88;;;10.73;;
72517;SDS011;60540;51.178;6.738;2022-12-10T11:59:30;25.38;;;10.60;;
72517;SDS011;60540;51.178;6.738;2022-12-10T12:02:05;27.08;;;11.27;;
72517;SDS011;60540;51.178;6.738;2022-12-10T12:10:25;27.73;;;10.75;;
72517;SDS011;60540;51.178;6.738;2022-12-10T12:15:42;29.48;;;12.07;;
72517;SDS011;60540;51.178;6.738;2022-12-10T12:20:40;28.73;;;11.40;;
72517;SDS011;60540;51.178;6.738;2022-12-10T12:23:17;23.83;;;11.02;;
72517;SDS011;60540;51.178;6.738;2022-12-10T12:25:48;26.70;;;11.00;;
72517;SDS011;60540;51.178;6.738;2022-12-10T12:28:20;24.40;;;10.63;;
72517;SDS011;60540;51.178;6.738;2022-12-10T12:30:48;23.13;;;10.60;;
72517;SDS011;60540;51.178;6.738;2022-12-10T12:36:09;25.30;;;10.48;;
72517;SDS011;60540;51.178;6.738;2022-12-10T12:38:45;22.30;;;8.80;;
72517;SDS011;60540;51.178;6.738;2022-12-10T12:41:37;22.38;;;10.10;;
72517;SDS011;60540;51.178;6.738;2022-12-10T12:44:19;21.48;;;9.63;;
72517;SDS011;60540;51.178;6.738;2022-12-10T12:46:55;21.52;;;9.85;;
72517;SDS011;60540;51.178;6.738;2022-12-10T12:52:05;21.98;;;10.55;;
72517;SDS011;60540;51.178;6.738;2022-12-10T12:54:40;23.23;;;9.55;;
72517;SDS011;60540;51.178;6.738;2022-12-10T12:57:07;25.25;;;11.23;;
72517;SDS011;60540;51.178;6.738;2022-12-10T13:05:02;25.08;;;10.63;;
72517;SDS011;60540;51.178;6.738;2022-12-10T13:07:29;25.05;;;11.15;;
72517;SDS011;60540;51.178;6.738;2022-12-10T13:20:30;23.67;;;10.73;;
72517;SDS011;60540;51.178;6.738;2022-12-10T13:28:28;25.95;;;12.13;;
72517;SDS011;60540;51.178;6.738;2022-12-10T13:36:21;23.65;;;10.05;;
72517;SDS011;60540;51.178;6.738;2022-12-10T13:50:20;26.13;;;11.05;;
72517;SDS011;60540;51.178;6.738;2022-12-10T14:01:30;28.85;;;12.15;;
72517;SDS011;60540;51.178;6.738;2022-12-10T14:04:05;25.50;;;10.98;;
72517;SDS011;60540;51.178;6.738;2022-12-10T14:06:40;25.23;;;11.90;;
72517;SDS011;60540;51.178;6.738;2022-12-10T14:11:58;26.50;;;11.60;;
72517;SDS011;60540;51.178;6.738;2022-12-10T14:14:33;23.77;;;11.30;;
72517;SDS011;60540;51.178;6.738;2022-12-10T14:17:01;28.83;;;12.23;;
72517;SDS011;60540;51.178;6.738;2022-12-10T14:19:32;25.13;;;11.40;;
72517;SDS011;60540;51.178;6.738;2022-12-10T14:21:58;27.75;;;12.85;;
72517;SDS011;60540;51.178;6.738;2022-12-10T14:27:00;26.50;;;11.77;;
72517;SDS011;60540;51.178;6.738;2022-12-10T14:29:28;28.00;;;12.52;;
72517;SDS011;60540;51.178;6.738;2022-12-10T14:31:54;30.42;;;13.10;;
72517;SDS011;60540;51.178;6.738;2022-12-10T14:34:24;29.10;;;12.13;;
72517;SDS011;60540;51.178;6.738;2022-12-10T14:36:52;33.13;;;14.13;;
72517;SDS011;60540;51.178;6.738;2022-12-10T14:39:21;27.27;;;12.07;;
72517;SDS011;60540;51.178;6.738;2022-12-10T14:41:50;30.55;;;12.02;;
72517;SDS011;60540;51.178;6.738;2022-12-10T14:46:43;30.17;;;12.02;;
72517;SDS011;60540;51.178;6.738;2022-12-10T14:49:16;30.83;;;12.30;;
72517;SDS011;60540;51.178;6.738;2022-12-10T14:51:49;35.10;;;12.57;;
72517;SDS011;60540;51.178;6.738;2022-12-10T14:54:28;30.30;;;12.88;;
72517;SDS011;60540;51.178;6.738;2022-12-10T14:56:56;27.23;;;10.88;;
72517;SDS011;60540;51.178;6.738;2022-12-10T14:59:29;31.85;;;12.60;;
72517;SDS011;60540;51.178;6.738;2022-12-10T15:02:24;27.70;;;11.98;;
72517;SDS011;60540;51.178;6.738;2022-12-10T15:04:52;27.35;;;11.55;;
72517;SDS011;60540;51.178;6.738;2022-12-10T15:07:19;28.33;;;12.27;;
72517;SDS011;60540;51.178;6.738;2022-12-10T15:09:46;27.15;;;12.10;;
72517;SDS011;60540;51.178;6.738;2022-12-10T15:12:27;29.42;;;12.48;;
72517;SDS011;60540;51.178;6.738;2022-12-10T15:14:56;31.23;;;12.57;;
72517;SDS011;60540;51.178;6.738;2022-12-10T15:17:33;31.20;;;12.13;;
72517;SDS011;60540;51.178;6.738;2022-12-10T15:20:01;28.55;;;10.85;;
72517;SDS011;60540;51.178;6.738;2022-12-10T15:22:27;31.05;;;13.43;;
72517;SDS011;60540;51.178;6.738;2022-12-10T15:24:54;31.00;;;12.73;;
72517;SDS011;60540;51.178;6.738;2022-12-10T15:27:20;26.75;;;11.55;;
72517;SDS011;60540;51.178;6.738;2022-12-10T15:29:48;23.73;;;9.85;;
72517;SDS011;60540;51.178;6.738;2022-12-10T15:32:26;29.38;;;10.77;;
72517;SDS011;60540;51.178;6.738;2022-12-10T15:35:01;28.33;;;10.35;;
72517;SDS011;60540;51.178;6.738;2022-12-10T15:37:33;27.00;;;10.77;;
72517;SDS011;60540;51.178;6.738;2022-12-10T15:40:03;34.50;;;12.70;;
72517;SDS011;60540;51.178;6.738;2022-12-10T15:45:03;26.52;;;11.75;;
72517;SDS011;60540;51.178;6.738;2022-12-10T15:47:51;32.55;;;10.25;;
72517;SDS011;60540;51.178;6.738;2022-12-10T15:50:17;35.35;;;12.20;;
72517;SDS011;60540;51.178;6.738;2022-12-10T15:52:43;30.73;;;11.25;;
72517;SDS011;60540;51.178;6.738;2022-12-10T15:55:10;29.92;;;11.23;;
72517;SDS011;60540;51.178;6.738;2022-12-10T15:57:37;36.83;;;13.07;;
72517;SDS011;60540;51.178;6.738;2022-12-10T16:00:14;28.33;;;11.77;;
72517;SDS011;60540;51.178;6.738;2022-12-10T16:05:33;33.17;;;12.57;;
72517;SDS011;60540;51.178;6.738;2022-12-10T16:08:01;32.90;;;13.07;;
72517;SDS011;60540;51.178;6.738;2022-12-10T16:10:32;36.80;;;13.85;;
72517;SDS011;60540;51.178;6.738;2022-12-10T16:13:02;42.13;;;14.02;;
72517;SDS011;60540;51.178;6.738;2022-12-10T16:15:30;33.97;;;12.15;;
72517;SDS011;60540;51.178;6.738;2022-12-10T16:18:08;34.53;;;13.23;;
72517;SDS011;60540;51.178;6.738;2022-12-10T16:20:35;36.85;;;13.60;;
72517;SDS011;60540;51.178;6.738;2022-12-10T16:23:00;30.00;;;12.82;;
72517;SDS011;60540;51.178;6.738;2022-12-10T16:25:28;29.65;;;11.60;;
72517;SDS011;60540;51.178;6.738;2022-12-10T16:27:55;32.80;;;12.02;;
72517;SDS011;60540;51.178;6.738;2022-12-10T16:30:26;32.95;;;11.10;;
72517;SDS011;60540;51.178;6.738;2022-12-10T16:32:55;27.55;;;10.35;;
72517;SDS011;60540;51.178;6.738;2022-12-10T16:35:21;26.75;;;10.63;;
72517;SDS011;60540;51.178;6.738;2022-12-10T16:37:47;25.80;;;10.02;;
72517;SDS011;60540;51.178;6.738;2022-12-10T16:40:22;30.02;;;11.65;;
72517;SDS011;60540;51.178;6.738;2022-12-10T16:42:49;32.83;;;11.65;;
72517;SDS011;60540;51.178;6.738;2022-12-10T16:45:18;27.70;;;11.00;;
72517;SDS011;60540;51.178;6.738;2022-12-10T16:47:45;31.42;;;12.38;;
72517;SDS011;60540;51.178;6.738;2022-12-10T16:50:12;28.17;;;11.18;;
72517;SDS011;60540;51.178;6.738;2022-12-10T16:52:39;29.98;;;11.30;;
72517;SDS011;60540;51.178;6.738;2022-12-10T16:55:05;28.27;;;12.25;;
72517;SDS011;60540;51.178;6.738;2022-12-10T16:57:32;27.60;;;10.63;;
72517;SDS011;60540;51.178;6.738;2022-12-10T16:59:58;27.15;;;10.70;;